Time,TemperatureF,DewpointF,PressureIn,WindDirection,WindDirectionDegrees,WindSpeedMPH,WindSpeedGustMPH,Humidity,HourlyPrecipIn,Conditions,Clouds,dailyrainin,SoftwareType,DateUTC
2013-04-21 00:01:00,49.8,28.2,30.29,WNW,294,17.0,17.0,43,0.00,,---,0.36,VWS V14.01,2013-04-21 04:01:00,
2013-04-21 00:06:00,49.7,29.8,30.29,WNW,290,9.0,14.0,46,0.00,,---,0.00,VWS V14.01,2013-04-21 04:06:00,
2013-04-21 00:11:00,49.5,29.6,30.29,WNW,283,7.0,16.0,46,0.00,,---,0.00,VWS V14.01,2013-04-21 04:11:00,
2013-04-21 00:16:00,49.4,30.5,30.29,WNW,297,12.0,18.0,48,0.00,,---,0.00,VWS V14.01,2013-04-21 04:16:00,
2013-04-21 00:21:00,49.3,29.9,30.29,WNW,298,13.0,18.0,47,0.00,,---,0.00,VWS V14.01,2013-04-21 04:21:00,
2013-04-21 00:26:00,49.2,29.9,30.30,NNW,329,5.0,18.0,47,0.00,,---,0.00,VWS V14.01,2013-04-21 04:26:00,
2013-04-21 00:31:00,49.1,30.3,30.30,NW,305,10.0,18.0,48,0.00,,---,0.00,VWS V14.01,2013-04-21 04:31:00,
2013-04-21 00:36:00,49.0,29.1,30.30,WNW,302,10.0,13.0,46,0.00,,---,0.00,VWS V14.01,2013-04-21 04:36:00,
2013-04-21 00:41:00,49.0,28.0,30.30,NW,304,10.0,16.0,44,0.00,,---,0.00,VWS V14.01,2013-04-21 04:41:00,
2013-04-21 00:46:00,48.8,28.4,30.30,WNW,300,8.0,16.0,45,0.00,,---,0.00,VWS V14.01,2013-04-21 04:46:00,
2013-04-21 00:51:00,48.6,28.8,30.30,WNW,296,9.0,16.0,46,0.00,,---,0.00,VWS V14.01,2013-04-21 04:51:00,
2013-04-21 00:56:00,48.5,28.7,30.31,NW,319,8.0,16.0,46,0.00,,---,0.00,VWS V14.01,2013-04-21 04:56:00,
2013-04-21 01:01:00,48.4,29.1,30.31,WNW,300,9.0,16.0,47,0.00,,---,0.00,VWS V14.01,2013-04-21 05:01:00,
2013-04-21 01:06:00,48.3,29.0,30.31,WNW,295,6.0,12.0,47,0.00,,---,0.00,VWS V14.01,2013-04-21 05:06:00,
2013-04-21 01:11:00,48.1,28.8,30.31,NNW,336,5.0,12.0,47,0.00,,---,0.00,VWS V14.01,2013-04-21 05:11:00,
2013-04-21 01:16:00,47.9,28.7,30.32,NW,324,3.0,12.0,47,0.00,,---,0.00,VWS V14.01,2013-04-21 05:16:00,
2013-04-21 01:21:00,47.7,29.0,30.32,WNW,293,4.0,12.0,48,0.00,,---,0.00,VWS V14.01,2013-04-21 05:21:00,
2013-04-21 01:26:00,47.6,29.9,30.32,WNW,294,6.0,12.0,50,0.00,,---,0.00,VWS V14.01,2013-04-21 05:26:00,
2013-04-21 01:31:00,47.6,28.9,30.32,NW,307,5.0,12.0,48,0.00,,---,0.00,VWS V14.01,2013-04-21 05:31:00,
2013-04-21 01:36:00,47.4,29.7,30.32,NW,312,4.0,11.0,50,0.00,,---,0.00,VWS V14.01,2013-04-21 05:36:00,
2013-04-21 01:41:00,47.2,29.5,30.33,WNW,294,5.0,11.0,50,0.00,,---,0.00,VWS V14.01,2013-04-21 05:41:00,
2013-04-21 01:46:00,47.1,28.9,30.33,NW,326,7.0,11.0,49,0.00,,---,0.00,VWS V14.01,2013-04-21 05:46:00,
2013-04-21 01:51:00,46.9,29.7,30.34,NW,311,5.0,11.0,51,0.00,,---,0.00,VWS V14.01,2013-04-21 05:51:00,
2013-04-21 01:56:00,46.8,30.6,30.34,NW,326,5.0,11.0,53,0.00,,---,0.00,VWS V14.01,2013-04-21 05:56:00,
2013-04-21 02:01:00,46.7,29.5,30.34,WNW,290,5.0,11.0,51,0.00,,---,0.00,VWS V14.01,2013-04-21 06:01:00,
2013-04-21 02:06:00,46.5,29.8,30.34,WNW,297,4.0,11.0,52,0.00,,---,0.00,VWS V14.01,2013-04-21 06:06:00,
2013-04-21 02:11:00,46.2,28.6,30.34,WNW,297,5.0,11.0,50,0.00,,---,0.00,VWS V14.01,2013-04-21 06:11:00,
2013-04-21 02:16:00,46.0,28.9,30.35,NW,311,8.0,11.0,51,0.00,,---,0.00,VWS V14.01,2013-04-21 06:16:00,
2013-04-21 02:21:00,45.9,28.3,30.35,NW,314,3.0,11.0,50,0.00,,---,0.00,VWS V14.01,2013-04-21 06:21:00,
2013-04-21 02:26:00,45.7,27.1,30.35,NW,324,4.0,12.0,48,0.00,,---,0.00,VWS V14.01,2013-04-21 06:26:00,
2013-04-21 02:31:00,45.5,27.5,30.35,NW,316,5.0,12.0,49,0.00,,---,0.00,VWS V14.01,2013-04-21 06:31:00,
2013-04-21 02:36:00,45.3,27.8,30.35,NW,311,6.0,8.0,50,0.00,,---,0.00,VWS V14.01,2013-04-21 06:36:00,
2013-04-21 02:41:00,45.2,27.2,30.35,NW,316,4.0,8.0,49,0.00,,---,0.00,VWS V14.01,2013-04-21 06:41:00,
2013-04-21 02:46:00,44.9,27.9,30.35,WNW,299,5.0,11.0,51,0.00,,---,0.00,VWS V14.01,2013-04-21 06:46:00,
2013-04-21 02:51:00,44.8,26.8,30.36,NNW,337,7.0,11.0,49,0.00,,---,0.00,VWS V14.01,2013-04-21 06:51:00,
2013-04-21 02:56:00,44.6,27.1,30.36,WNW,293,6.0,11.0,50,0.00,,---,0.00,VWS V14.01,2013-04-21 06:56:00,
2013-04-21 03:01:00,44.5,27.0,30.36,North,355,6.0,12.0,50,0.00,,---,0.00,VWS V14.01,2013-04-21 07:01:00,
2013-04-21 03:06:00,44.3,26.9,30.37,NW,323,8.0,13.0,50,0.00,,---,0.00,VWS V14.01,2013-04-21 07:06:00,
2013-04-21 03:11:00,44.0,27.5,30.37,WNW,300,8.0,13.0,52,0.00,,---,0.00,VWS V14.01,2013-04-21 07:11:00,
2013-04-21 03:16:00,43.8,28.2,30.37,North,359,7.0,13.0,54,0.00,,---,0.00,VWS V14.01,2013-04-21 07:16:00,
2013-04-21 03:21:00,43.5,26.6,30.37,NNE,19,10.0,15.0,51,0.00,,---,0.00,VWS V14.01,2013-04-21 07:21:00,
2013-04-21 03:26:00,43.2,26.8,30.37,North,349,6.0,15.0,52,0.00,,---,0.00,VWS V14.01,2013-04-21 07:26:00,
2013-04-21 03:31:00,42.9,26.0,30.37,NNE,19,10.0,15.0,51,0.00,,---,0.00,VWS V14.01,2013-04-21 07:31:00,
2013-04-21 03:36:00,42.7,26.8,30.38,North,359,8.0,15.0,53,0.00,,---,0.00,VWS V14.01,2013-04-21 07:36:00,
2013-04-21 03:41:00,42.5,27.0,30.38,NNW,344,10.0,15.0,54,0.00,,---,0.00,VWS V14.01,2013-04-21 07:41:00,
2013-04-21 03:46:00,42.3,26.9,30.39,NNW,337,4.0,15.0,54,0.00,,---,0.00,VWS V14.01,2013-04-21 07:46:00,
2013-04-21 03:51:00,42.1,26.2,30.38,North,355,8.0,15.0,53,0.00,,---,0.00,VWS V14.01,2013-04-21 07:51:00,
2013-04-21 03:56:00,42.0,26.6,30.39,NW,323,7.0,15.0,54,0.00,,---,0.00,VWS V14.01,2013-04-21 07:56:00,
2013-04-21 04:01:00,41.8,26.4,30.39,NW,316,5.0,15.0,54,0.00,,---,0.00,VWS V14.01,2013-04-21 08:01:00,
2013-04-21 04:06:00,41.6,26.2,30.39,North,1,6.0,14.0,54,0.00,,---,0.00,VWS V14.01,2013-04-21 08:06:00,
2013-04-21 04:11:00,41.5,24.7,30.39,WNW,298,7.0,14.0,51,0.00,,---,0.00,VWS V14.01,2013-04-21 08:11:00,
2013-04-21 04:16:00,41.4,25.6,30.40,NW,319,6.0,14.0,53,0.00,,---,0.00,VWS V14.01,2013-04-21 08:16:00,
2013-04-21 04:21:00,41.3,25.0,30.40,NNW,337,6.0,14.0,52,0.00,,---,0.00,VWS V14.01,2013-04-21 08:21:00,
2013-04-21 04:26:00,41.1,23.9,30.40,NW,316,3.0,14.0,50,0.00,,---,0.00,VWS V14.01,2013-04-21 08:26:00,
2013-04-21 04:31:00,41.0,24.3,30.41,NNW,336,3.0,14.0,51,0.00,,---,0.00,VWS V14.01,2013-04-21 08:31:00,
2013-04-21 04:36:00,40.9,24.2,30.41,NW,326,9.0,12.0,51,0.00,,---,0.00,VWS V14.01,2013-04-21 08:36:00,
2013-04-21 04:41:00,40.8,24.1,30.42,NW,305,10.0,12.0,51,0.00,,---,0.00,VWS V14.01,2013-04-21 08:41:00,
2013-04-21 04:46:00,40.6,23.9,30.42,NNE,27,3.0,12.0,51,0.00,,---,0.00,VWS V14.01,2013-04-21 08:46:00,
2013-04-21 04:51:00,40.6,23.9,30.42,NW,323,7.0,12.0,51,0.00,,---,0.00,VWS V14.01,2013-04-21 08:51:00,
2013-04-21 04:56:00,40.4,23.2,30.42,NNW,330,5.0,12.0,50,0.00,,---,0.00,VWS V14.01,2013-04-21 08:56:00,
2013-04-21 05:01:00,40.3,23.6,30.42,NNW,344,6.0,12.0,51,0.00,,---,0.00,VWS V14.01,2013-04-21 09:01:00,
2013-04-21 05:06:00,40.3,24.5,30.43,NW,326,5.0,7.0,53,0.00,,---,0.00,VWS V14.01,2013-04-21 09:06:00,
2013-04-21 05:11:00,40.1,23.4,30.43,North,4,8.0,9.0,51,0.00,,---,0.00,VWS V14.01,2013-04-21 09:11:00,
2013-04-21 05:16:00,40.0,23.4,30.43,North,1,6.0,9.0,51,0.00,,---,0.00,VWS V14.01,2013-04-21 09:16:00,
2013-04-21 05:21:00,39.9,23.7,30.44,NNW,333,2.0,9.0,52,0.00,,---,0.00,VWS V14.01,2013-04-21 09:21:00,
2013-04-21 05:26:00,39.7,23.5,30.44,NNW,344,8.0,10.0,52,0.00,,---,0.00,VWS V14.01,2013-04-21 09:26:00,
2013-04-21 05:31:00,39.7,23.5,30.44,WNW,290,3.0,10.0,52,0.00,,---,0.00,VWS V14.01,2013-04-21 09:31:00,
2013-04-21 05:36:00,39.6,23.9,30.45,NNW,336,5.0,7.0,53,0.00,,---,0.00,VWS V14.01,2013-04-21 09:36:00,
2013-04-21 05:41:00,39.5,23.8,30.45,NW,326,5.0,10.0,53,0.00,,---,0.00,VWS V14.01,2013-04-21 09:41:00,
2013-04-21 05:46:00,39.4,23.2,30.45,NE,34,3.0,10.0,52,0.00,,---,0.00,VWS V14.01,2013-04-21 09:46:00,
2013-04-21 05:51:00,39.3,23.6,30.45,NW,326,4.0,10.0,53,0.00,,---,0.00,VWS V14.01,2013-04-21 09:51:00,
2013-04-21 05:56:00,39.3,24.5,30.45,NW,321,6.0,10.0,55,0.00,,---,0.00,VWS V14.01,2013-04-21 09:56:00,
2013-04-21 06:01:00,39.2,24.8,30.46,NNW,333,8.0,10.0,56,0.00,,---,0.00,VWS V14.01,2013-04-21 10:01:00,
2013-04-21 06:06:00,39.1,24.3,30.46,NNW,342,7.0,8.0,55,0.00,,---,0.00,VWS V14.01,2013-04-21 10:06:00,
2013-04-21 06:11:00,39.0,23.8,30.47,NNW,340,7.0,11.0,54,0.00,,---,0.00,VWS V14.01,2013-04-21 10:11:00,
2013-04-21 06:16:00,39.1,24.7,30.47,NNW,336,7.0,11.0,56,0.00,,---,0.00,VWS V14.01,2013-04-21 10:16:00,
2013-04-21 06:21:00,39.1,24.3,30.47,NNW,344,10.0,11.0,55,0.00,,---,0.00,VWS V14.01,2013-04-21 10:21:00,
2013-04-21 06:26:00,39.3,24.1,30.48,WNW,296,7.0,12.0,54,0.00,,---,0.00,VWS V14.01,2013-04-21 10:26:00,
2013-04-21 06:31:00,39.5,25.1,30.48,NW,320,7.0,13.0,56,0.00,,---,0.00,VWS V14.01,2013-04-21 10:31:00,
2013-04-21 06:36:00,39.7,24.4,30.48,NW,314,6.0,8.0,54,0.00,,---,0.00,VWS V14.01,2013-04-21 10:36:00,
2013-04-21 06:41:00,39.8,25.0,30.49,NW,304,5.0,12.0,55,0.00,,---,0.00,VWS V14.01,2013-04-21 10:41:00,
2013-04-21 06:46:00,39.9,24.6,30.49,NNE,19,4.0,12.0,54,0.00,,---,0.00,VWS V14.01,2013-04-21 10:46:00,
2013-04-21 06:51:00,40.1,25.7,30.49,WNW,289,3.0,12.0,56,0.00,,---,0.00,VWS V14.01,2013-04-21 10:51:00,
2013-04-21 06:56:00,40.0,24.7,30.50,NW,323,5.0,12.0,54,0.00,,---,0.00,VWS V14.01,2013-04-21 10:56:00,
2013-04-21 07:01:00,40.0,25.1,30.50,NNW,344,6.0,12.0,55,0.00,,---,0.00,VWS V14.01,2013-04-21 11:01:00,
2013-04-21 07:06:00,40.1,25.7,30.51,NW,326,6.0,8.0,56,0.00,,---,0.00,VWS V14.01,2013-04-21 11:06:00,
2013-04-21 07:11:00,40.2,25.3,30.51,North,358,2.0,8.0,55,0.00,,---,0.00,VWS V14.01,2013-04-21 11:11:00,
2013-04-21 07:16:00,40.3,25.4,30.51,NW,322,4.0,9.0,55,0.00,,---,0.00,VWS V14.01,2013-04-21 11:16:00,
2013-04-21 07:21:00,40.2,26.2,30.52,WNW,297,4.0,9.0,57,0.00,,---,0.00,VWS V14.01,2013-04-21 11:21:00,
2013-04-21 07:26:00,40.3,25.9,30.52,NNW,329,6.0,10.0,56,0.00,,---,0.00,VWS V14.01,2013-04-21 11:26:00,
2013-04-21 07:31:00,40.4,25.5,30.52,NW,316,6.0,10.0,55,0.00,,---,0.00,VWS V14.01,2013-04-21 11:31:00,
2013-04-21 07:36:00,40.6,26.1,30.52,NNE,18,2.0,10.0,56,0.00,,---,0.00,VWS V14.01,2013-04-21 11:36:00,
2013-04-21 07:41:00,40.5,25.2,30.53,NNW,345,7.0,13.0,54,0.00,,---,0.00,VWS V14.01,2013-04-21 11:41:00,
2013-04-21 07:46:00,40.5,25.2,30.53,NNW,344,5.0,13.0,54,0.00,,---,0.00,VWS V14.01,2013-04-21 11:46:00,
2013-04-21 07:51:00,40.8,25.9,30.53,NNE,18,7.0,13.0,55,0.00,,---,0.00,VWS V14.01,2013-04-21 11:51:00,
2013-04-21 07:56:00,41.0,25.6,30.53,NNW,335,7.0,13.0,54,0.00,,---,0.00,VWS V14.01,2013-04-21 11:56:00,
2013-04-21 08:01:00,41.2,25.4,30.53,NNW,335,7.0,13.0,53,0.00,,---,0.00,VWS V14.01,2013-04-21 12:01:00,
2013-04-21 08:06:00,41.1,25.7,30.53,NNE,19,12.0,13.0,54,0.00,,---,0.00,VWS V14.01,2013-04-21 12:06:00,
2013-04-21 08:11:00,41.2,25.4,30.53,NNW,347,8.0,14.0,53,0.00,,---,0.00,VWS V14.01,2013-04-21 12:11:00,
2013-04-21 08:16:00,41.4,25.6,30.53,NNW,332,5.0,14.0,53,0.00,,---,0.00,VWS V14.01,2013-04-21 12:16:00,
2013-04-21 08:21:00,41.5,24.7,30.53,NNW,331,4.0,14.0,51,0.00,,---,0.00,VWS V14.01,2013-04-21 12:21:00,
2013-04-21 08:26:00,41.7,25.4,30.53,NNE,30,10.0,14.0,52,0.00,,---,0.00,VWS V14.01,2013-04-21 12:26:00,
2013-04-21 08:31:00,41.9,25.1,30.53,NNW,343,6.0,14.0,51,0.00,,---,0.00,VWS V14.01,2013-04-21 12:31:00,
2013-04-21 08:36:00,41.9,24.1,30.53,NNE,20,11.0,14.0,49,0.00,,---,0.00,VWS V14.01,2013-04-21 12:36:00,
2013-04-21 08:41:00,42.0,25.7,30.53,NE,41,15.0,18.0,52,0.00,,---,0.00,VWS V14.01,2013-04-21 12:41:00,
2013-04-21 08:46:00,42.0,24.2,30.54,North,3,5.0,18.0,49,0.00,,---,0.00,VWS V14.01,2013-04-21 12:46:00,
2013-04-21 08:51:00,42.2,23.9,30.54,North,7,10.0,18.0,48,0.00,,---,0.00,VWS V14.01,2013-04-21 12:51:00,
2013-04-21 08:56:00,42.2,25.4,30.54,North,9,6.0,18.0,51,0.00,,---,0.00,VWS V14.01,2013-04-21 12:56:00,
2013-04-21 09:01:00,42.5,24.7,30.54,NE,36,9.0,18.0,49,0.00,,---,0.00,VWS V14.01,2013-04-21 13:01:00,
2013-04-21 09:06:00,42.3,24.0,30.54,NNW,334,7.0,13.0,48,0.00,,---,0.00,VWS V14.01,2013-04-21 13:06:00,
2013-04-21 09:11:00,42.6,24.8,30.54,NNE,19,7.0,14.0,49,0.00,,---,0.00,VWS V14.01,2013-04-21 13:11:00,
2013-04-21 09:16:00,42.4,25.1,30.54,NNE,20,5.0,14.0,50,0.00,,---,0.00,VWS V14.01,2013-04-21 13:16:00,
2013-04-21 09:21:00,42.6,24.8,30.55,North,11,7.0,14.0,49,0.00,,---,0.00,VWS V14.01,2013-04-21 13:21:00,
2013-04-21 09:26:00,42.6,25.8,30.55,NNE,16,11.0,14.0,51,0.00,,---,0.00,VWS V14.01,2013-04-21 13:26:00,
2013-04-21 09:31:00,42.7,25.4,30.55,NNE,30,9.0,14.0,50,0.00,,---,0.00,VWS V14.01,2013-04-21 13:31:00,
2013-04-21 09:36:00,42.7,26.8,30.55,NNE,18,8.0,12.0,53,0.00,,---,0.00,VWS V14.01,2013-04-21 13:36:00,
2013-04-21 09:41:00,42.6,26.2,30.55,NE,46,7.0,12.0,52,0.00,,---,0.00,VWS V14.01,2013-04-21 13:41:00,
2013-04-21 09:46:00,43.0,25.6,30.56,NW,321,8.0,15.0,50,0.00,,---,0.00,VWS V14.01,2013-04-21 13:46:00,
2013-04-21 09:51:00,43.0,25.6,30.56,NNE,20,6.0,15.0,50,0.00,,---,0.00,VWS V14.01,2013-04-21 13:51:00,
2013-04-21 09:56:00,42.7,25.4,30.56,NNW,344,3.0,15.0,50,0.00,,---,0.00,VWS V14.01,2013-04-21 13:56:00,
2013-04-21 10:01:00,43.4,27.4,30.56,NNE,18,14.0,15.0,53,0.00,,---,0.00,VWS V14.01,2013-04-21 14:01:00,
2013-04-21 10:06:00,43.3,26.9,30.56,NNE,22,9.0,13.0,52,0.00,,---,0.00,VWS V14.01,2013-04-21 14:06:00,
2013-04-21 10:11:00,43.2,24.9,30.56,WSW,246,0.0,13.0,48,0.00,,---,0.00,VWS V14.01,2013-04-21 14:11:00,
2013-04-21 10:16:00,43.2,25.8,30.57,NE,49,10.0,13.0,50,0.00,,---,0.00,VWS V14.01,2013-04-21 14:16:00,
2013-04-21 10:21:00,43.3,26.4,30.57,NE,49,5.0,13.0,51,0.00,,---,0.00,VWS V14.01,2013-04-21 14:21:00,
2013-04-21 10:26:00,43.4,26.0,30.57,NE,43,10.0,13.0,50,0.00,,---,0.00,VWS V14.01,2013-04-21 14:26:00,
2013-04-21 10:31:00,43.6,26.2,30.57,NNE,32,7.0,14.0,50,0.00,,---,0.00,VWS V14.01,2013-04-21 14:31:00,
2013-04-21 10:36:00,43.1,28.9,30.57,NE,48,12.0,12.0,57,0.00,,---,0.00,VWS V14.01,2013-04-21 14:36:00,
2013-04-21 10:41:00,42.6,28.0,30.57,ENE,61,11.0,17.0,56,0.00,,---,0.00,VWS V14.01,2013-04-21 14:41:00,
2013-04-21 10:46:00,42.9,29.6,30.57,NE,51,14.0,17.0,59,0.00,,---,0.00,VWS V14.01,2013-04-21 14:46:00,
2013-04-21 10:51:00,42.4,29.5,30.57,ENE,57,11.0,18.0,60,0.00,,---,0.00,VWS V14.01,2013-04-21 14:51:00,
2013-04-21 10:56:00,42.6,29.7,30.57,ENE,59,12.0,18.0,60,0.00,,---,0.00,VWS V14.01,2013-04-21 14:56:00,
2013-04-21 11:01:00,42.5,30.0,30.57,ENE,58,15.0,18.0,61,0.00,,---,0.00,VWS V14.01,2013-04-21 15:01:00,
2013-04-21 11:06:00,42.7,30.2,30.57,ENE,60,14.0,18.0,61,0.00,,---,0.00,VWS V14.01,2013-04-21 15:06:00,
2013-04-21 11:11:00,42.6,30.1,30.58,ENE,57,12.0,18.0,61,0.00,,---,0.00,VWS V14.01,2013-04-21 15:11:00,
2013-04-21 11:16:00,42.6,30.1,30.57,ENE,70,11.0,18.0,61,0.00,,---,0.00,VWS V14.01,2013-04-21 15:16:00,
2013-04-21 11:21:00,42.5,29.2,30.58,ENE,62,11.0,18.0,59,0.00,,---,0.00,VWS V14.01,2013-04-21 15:21:00,
2013-04-21 11:26:00,42.6,30.5,30.58,ENE,59,16.0,18.0,62,0.00,,---,0.00,VWS V14.01,2013-04-21 15:26:00,
2013-04-21 11:31:00,42.7,30.2,30.58,ENE,66,16.0,18.0,61,0.00,,---,0.00,VWS V14.01,2013-04-21 15:31:00,
2013-04-21 11:36:00,42.7,31.8,30.57,NE,51,14.0,19.0,65,0.00,,---,0.00,VWS V14.01,2013-04-21 15:36:00,
2013-04-21 11:41:00,42.7,32.9,30.57,NE,50,13.0,19.0,68,0.00,,---,0.00,VWS V14.01,2013-04-21 15:41:00,
2013-04-21 11:46:00,42.7,31.0,30.57,ENE,63,13.0,19.0,63,0.00,,---,0.00,VWS V14.01,2013-04-21 15:46:00,
2013-04-21 11:51:00,42.6,30.5,30.57,NE,53,16.0,19.0,62,0.00,,---,0.00,VWS V14.01,2013-04-21 15:51:00,
2013-04-21 11:56:00,42.6,28.9,30.57,NE,51,16.0,19.0,58,0.00,,---,0.00,VWS V14.01,2013-04-21 15:56:00,
2013-04-21 12:01:00,42.6,31.3,30.57,ENE,63,16.0,16.0,64,0.00,,---,0.00,VWS V14.01,2013-04-21 16:01:00,
2013-04-21 12:06:00,42.6,30.1,30.57,NE,56,15.0,17.0,61,0.00,,---,0.00,VWS V14.01,2013-04-21 16:06:00,
2013-04-21 12:11:00,42.7,29.8,30.57,ENE,63,16.0,17.0,60,0.00,,---,0.00,VWS V14.01,2013-04-21 16:11:00,
2013-04-21 12:16:00,42.8,31.1,30.57,ENE,63,13.0,17.0,63,0.00,,---,0.00,VWS V14.01,2013-04-21 16:16:00,
2013-04-21 12:21:00,43.0,31.3,30.57,ENE,60,15.0,17.0,63,0.00,,---,0.00,VWS V14.01,2013-04-21 16:21:00,
2013-04-21 12:26:00,42.9,30.8,30.57,ENE,67,14.0,17.0,62,0.00,,---,0.00,VWS V14.01,2013-04-21 16:26:00,
2013-04-21 12:31:00,43.3,31.6,30.57,ENE,57,15.0,15.0,63,0.00,,---,0.00,VWS V14.01,2013-04-21 16:31:00,
2013-04-21 12:36:00,43.2,31.1,30.57,NE,55,12.0,15.0,62,0.00,,---,0.00,VWS V14.01,2013-04-21 16:36:00,
2013-04-21 12:41:00,43.3,32.3,30.57,ENE,60,12.0,16.0,65,0.00,,---,0.00,VWS V14.01,2013-04-21 16:41:00,
2013-04-21 12:46:00,43.4,30.9,30.57,ENE,69,11.0,16.0,61,0.00,,---,0.00,VWS V14.01,2013-04-21 16:46:00,
2013-04-21 12:51:00,43.6,31.5,30.57,ENE,68,11.0,16.0,62,0.00,,---,0.00,VWS V14.01,2013-04-21 16:51:00,
2013-04-21 12:56:00,43.5,31.4,30.57,ENE,63,11.0,16.0,62,0.00,,---,0.00,VWS V14.01,2013-04-21 16:56:00,
2013-04-21 13:01:00,43.7,30.7,30.57,ENE,73,10.0,10.0,60,0.00,,---,0.00,VWS V14.01,2013-04-21 17:01:00,
2013-04-21 13:06:00,43.5,29.3,30.57,East,87,7.0,15.0,57,0.00,,---,0.00,VWS V14.01,2013-04-21 17:06:00,
2013-04-21 13:11:00,43.7,30.3,30.57,NE,54,10.0,15.0,59,0.00,,---,0.00,VWS V14.01,2013-04-21 17:11:00,
2013-04-21 13:16:00,43.9,30.5,30.57,East,85,6.0,15.0,59,0.00,,---,0.00,VWS V14.01,2013-04-21 17:16:00,
2013-04-21 13:21:00,44.1,30.3,30.57,East,79,11.0,15.0,58,0.00,,---,0.00,VWS V14.01,2013-04-21 17:21:00,
2013-04-21 13:26:00,44.3,31.7,30.57,ENE,75,13.0,15.0,61,0.00,,---,0.00,VWS V14.01,2013-04-21 17:26:00,
2013-04-21 13:31:00,43.7,30.3,30.57,ENE,61,12.0,12.0,59,0.00,,---,0.00,VWS V14.01,2013-04-21 17:31:00,
2013-04-21 13:36:00,43.6,31.0,30.57,ENE,74,12.0,16.0,61,0.00,,---,0.00,VWS V14.01,2013-04-21 17:36:00,
2013-04-21 13:41:00,43.7,29.5,30.57,ENE,71,15.0,18.0,57,0.00,,---,0.00,VWS V14.01,2013-04-21 17:41:00,
2013-04-21 13:46:00,44.2,30.8,30.57,ENE,61,9.0,18.0,59,0.00,,---,0.00,VWS V14.01,2013-04-21 17:46:00,
2013-04-21 13:51:00,44.0,29.8,30.57,East,82,12.0,18.0,57,0.00,,---,0.00,VWS V14.01,2013-04-21 17:51:00,
2013-04-21 13:56:00,44.1,29.4,30.57,NE,50,8.0,18.0,56,0.00,,---,0.00,VWS V14.01,2013-04-21 17:56:00,
2013-04-21 14:01:00,44.2,30.4,30.57,ENE,61,8.0,8.0,58,0.00,,---,0.00,VWS V14.01,2013-04-21 18:01:00,
2013-04-21 14:06:00,44.4,32.6,30.57,ENE,61,11.0,17.0,63,0.00,,---,0.00,VWS V14.01,2013-04-21 18:06:00,
2013-04-21 14:11:00,44.0,31.0,30.57,ENE,63,14.0,17.0,60,0.00,,---,0.00,VWS V14.01,2013-04-21 18:11:00,
2013-04-21 14:16:00,44.0,32.6,30.57,ENE,61,11.0,17.0,64,0.00,,---,0.00,VWS V14.01,2013-04-21 18:16:00,
2013-04-21 14:21:00,44.3,30.9,30.57,ENE,65,13.0,17.0,59,0.00,,---,0.00,VWS V14.01,2013-04-21 18:21:00,
2013-04-21 14:26:00,44.2,30.8,30.57,East,84,7.0,17.0,59,0.00,,---,0.00,VWS V14.01,2013-04-21 18:26:00,
2013-04-21 14:31:00,44.8,29.6,30.57,ENE,62,11.0,11.0,55,0.00,,---,0.00,VWS V14.01,2013-04-21 18:31:00,
2013-04-21 14:36:00,44.6,31.2,30.57,NE,56,11.0,15.0,59,0.00,,---,0.00,VWS V14.01,2013-04-21 18:36:00,
2013-04-21 14:41:00,44.8,30.5,30.57,ENE,65,12.0,15.0,57,0.00,,---,0.00,VWS V14.01,2013-04-21 18:41:00,
2013-04-21 14:46:00,44.8,30.5,30.57,ENE,70,8.0,15.0,57,0.00,,---,0.00,VWS V14.01,2013-04-21 18:46:00,
2013-04-21 14:51:00,45.1,32.1,30.57,ENE,67,8.0,15.0,60,0.00,,---,0.00,VWS V14.01,2013-04-21 18:51:00,
2013-04-21 14:56:00,44.8,30.5,30.56,ENE,63,8.0,15.0,57,0.00,,---,0.00,VWS V14.01,2013-04-21 18:56:00,
2013-04-21 15:01:00,45.1,30.8,30.56,ENE,63,9.0,15.0,57,0.00,,---,0.00,VWS V14.01,2013-04-21 19:01:00,
2013-04-21 15:06:00,45.3,30.1,30.56,ENE,57,13.0,13.0,55,0.00,,---,0.00,VWS V14.01,2013-04-21 19:06:00,
2013-04-21 15:11:00,45.3,31.0,30.56,East,80,9.0,14.0,57,0.00,,---,0.00,VWS V14.01,2013-04-21 19:11:00,
2013-04-21 15:16:00,45.6,31.3,30.56,NE,55,6.0,14.0,57,0.00,,---,0.00,VWS V14.01,2013-04-21 19:16:00,
2013-04-21 15:21:00,45.4,31.1,30.56,ENE,61,8.0,14.0,57,0.00,,---,0.00,VWS V14.01,2013-04-21 19:21:00,
2013-04-21 15:26:00,45.6,31.7,30.56,ENE,64,10.0,14.0,58,0.00,,---,0.00,VWS V14.01,2013-04-21 19:26:00,
2013-04-21 15:31:00,45.2,30.9,30.56,ENE,70,11.0,11.0,57,0.00,,---,0.00,VWS V14.01,2013-04-21 19:31:00,
2013-04-21 15:36:00,45.6,31.7,30.56,ENE,65,9.0,11.0,58,0.00,,---,0.00,VWS V14.01,2013-04-21 19:36:00,
2013-04-21 15:41:00,46.2,29.6,30.56,NE,53,7.0,12.0,52,0.00,,---,0.00,VWS V14.01,2013-04-21 19:41:00,
2013-04-21 15:46:00,45.7,31.8,30.56,NE,56,8.0,14.0,58,0.00,,---,0.00,VWS V14.01,2013-04-21 19:46:00,
2013-04-21 15:51:00,45.9,31.1,30.56,NE,52,6.0,14.0,56,0.00,,---,0.00,VWS V14.01,2013-04-21 19:51:00,
2013-04-21 15:56:00,45.8,29.7,30.56,ENE,70,7.0,14.0,53,0.00,,---,0.00,VWS V14.01,2013-04-21 19:56:00,
2013-04-21 16:01:00,46.4,30.2,30.56,ESE,113,6.0,7.0,53,0.00,,---,0.00,VWS V14.01,2013-04-21 20:01:00,
2013-04-21 16:06:00,46.7,29.5,30.56,ENE,77,5.0,12.0,51,0.00,,---,0.00,VWS V14.01,2013-04-21 20:06:00,
2013-04-21 16:11:00,46.6,30.4,30.56,ENE,78,4.0,12.0,53,0.00,,---,0.00,VWS V14.01,2013-04-21 20:11:00,
2013-04-21 16:16:00,47.0,31.2,30.56,ESE,107,7.0,12.0,54,0.00,,---,0.00,VWS V14.01,2013-04-21 20:16:00,
2013-04-21 16:21:00,47.1,31.8,30.56,ESE,121,10.0,12.0,55,0.00,,---,0.00,VWS V14.01,2013-04-21 20:21:00,
2013-04-21 16:26:00,47.1,31.3,30.56,ENE,76,5.0,12.0,54,0.00,,---,0.00,VWS V14.01,2013-04-21 20:26:00,
2013-04-21 16:31:00,46.9,31.1,30.56,East,100,4.0,12.0,54,0.00,,---,0.00,VWS V14.01,2013-04-21 20:31:00,
2013-04-21 16:36:00,47.0,31.2,30.56,ENE,76,5.0,9.0,54,0.00,,---,0.00,VWS V14.01,2013-04-21 20:36:00,
2013-04-21 16:41:00,46.9,30.7,30.56,East,83,7.0,9.0,53,0.00,,---,0.00,VWS V14.01,2013-04-21 20:41:00,
2013-04-21 16:46:00,46.9,32.0,30.56,East,86,7.0,10.0,56,0.00,,---,0.00,VWS V14.01,2013-04-21 20:46:00,
2013-04-21 16:51:00,46.7,30.5,30.56,ENE,63,8.0,11.0,53,0.00,,---,0.00,VWS V14.01,2013-04-21 20:51:00,
2013-04-21 16:56:00,46.6,31.3,30.56,ENE,70,6.0,11.0,55,0.00,,---,0.00,VWS V14.01,2013-04-21 20:56:00,
2013-04-21 17:01:00,47.0,31.7,30.56,ENE,60,6.0,11.0,55,0.00,,---,0.00,VWS V14.01,2013-04-21 21:01:00,
2013-04-21 17:06:00,47.3,31.5,30.56,ENE,59,3.0,8.0,54,0.00,,---,0.00,VWS V14.01,2013-04-21 21:06:00,
2013-04-21 17:11:00,46.9,30.7,30.56,ENE,66,3.0,9.0,53,0.00,,---,0.00,VWS V14.01,2013-04-21 21:11:00,
2013-04-21 17:16:00,46.8,32.4,30.56,East,89,4.0,9.0,57,0.00,,---,0.00,VWS V14.01,2013-04-21 21:16:00,
2013-04-21 17:21:00,46.5,30.8,30.56,East,101,2.0,9.0,54,0.00,,---,0.00,VWS V14.01,2013-04-21 21:21:00,
2013-04-21 17:26:00,46.4,30.7,30.56,East,79,6.0,9.0,54,0.00,,---,0.00,VWS V14.01,2013-04-21 21:26:00,
2013-04-21 17:31:00,46.1,29.9,30.56,ENE,67,5.0,9.0,53,0.00,,---,0.00,VWS V14.01,2013-04-21 21:31:00,
2013-04-21 17:36:00,46.3,31.0,30.56,ENE,63,6.0,10.0,55,0.00,,---,0.00,VWS V14.01,2013-04-21 21:36:00,
2013-04-21 17:41:00,46.5,31.7,30.56,ENE,63,4.0,10.0,56,0.00,,---,0.00,VWS V14.01,2013-04-21 21:41:00,
2013-04-21 17:46:00,46.6,32.2,30.57,ENE,74,5.0,10.0,57,0.00,,---,0.00,VWS V14.01,2013-04-21 21:46:00,
2013-04-21 17:51:00,46.7,31.9,30.57,ENE,58,4.0,10.0,56,0.00,,---,0.00,VWS V14.01,2013-04-21 21:51:00,
2013-04-21 17:56:00,46.7,31.9,30.57,ENE,67,4.0,10.0,56,0.00,,---,0.00,VWS V14.01,2013-04-21 21:56:00,
2013-04-21 18:01:00,46.8,32.4,30.56,ESE,108,4.0,6.0,57,0.00,,---,0.00,VWS V14.01,2013-04-21 22:01:00,
2013-04-21 18:06:00,46.9,32.0,30.56,ESE,116,3.0,6.0,56,0.00,,---,0.00,VWS V14.01,2013-04-21 22:06:00,
2013-04-21 18:11:00,46.8,32.4,30.56,ESE,103,4.0,6.0,57,0.00,,---,0.00,VWS V14.01,2013-04-21 22:11:00,
2013-04-21 18:16:00,46.7,31.9,30.56,ESE,108,5.0,8.0,56,0.00,,---,0.00,VWS V14.01,2013-04-21 22:16:00,
2013-04-21 18:21:00,46.6,32.6,30.56,East,81,5.0,8.0,58,0.00,,---,0.00,VWS V14.01,2013-04-21 22:21:00,
2013-04-21 18:26:00,46.3,31.9,30.56,ESE,105,3.0,8.0,57,0.00,,---,0.00,VWS V14.01,2013-04-21 22:26:00,
2013-04-21 18:31:00,46.0,31.6,30.56,ESE,103,5.0,5.0,57,0.00,,---,0.00,VWS V14.01,2013-04-21 22:31:00,
2013-04-21 18:36:00,45.8,32.3,30.56,East,94,2.0,6.0,59,0.00,,---,0.00,VWS V14.01,2013-04-21 22:36:00,
2013-04-21 18:41:00,45.9,31.1,30.56,ESE,117,5.0,7.0,56,0.00,,---,0.00,VWS V14.01,2013-04-21 22:41:00,
2013-04-21 18:46:00,46.0,32.1,30.56,East,86,5.0,7.0,58,0.00,,---,0.00,VWS V14.01,2013-04-21 22:46:00,
2013-04-21 18:51:00,45.9,31.1,30.57,NE,36,3.0,7.0,56,0.00,,---,0.00,VWS V14.01,2013-04-21 22:51:00,
2013-04-21 18:56:00,45.7,30.9,30.57,ENE,77,4.0,7.0,56,0.00,,---,0.00,VWS V14.01,2013-04-21 22:56:00,
2013-04-21 19:01:00,45.4,31.1,30.57,ESE,103,3.0,3.0,57,0.00,,---,0.00,VWS V14.01,2013-04-21 23:01:00,
2013-04-21 19:06:00,45.5,31.2,30.57,SE,125,3.0,5.0,57,0.00,,---,0.00,VWS V14.01,2013-04-21 23:06:00,
2013-04-21 19:11:00,45.4,30.6,30.58,SE,124,3.0,8.0,56,0.00,,---,0.00,VWS V14.01,2013-04-21 23:11:00,
2013-04-21 19:16:00,45.4,31.9,30.57,East,97,2.0,8.0,59,0.00,,---,0.00,VWS V14.01,2013-04-21 23:16:00,
2013-04-21 19:21:00,45.5,30.7,30.57,ESE,105,2.0,8.0,56,0.00,,---,0.00,VWS V14.01,2013-04-21 23:21:00,
2013-04-21 19:26:00,45.2,31.7,30.58,SE,145,2.0,8.0,59,0.00,,---,0.00,VWS V14.01,2013-04-21 23:26:00,
2013-04-21 19:31:00,45.0,31.1,30.58,East,93,2.0,2.0,58,0.00,,---,0.00,VWS V14.01,2013-04-21 23:31:00,
2013-04-21 19:36:00,44.9,31.5,30.58,East,101,2.0,6.0,59,0.00,,---,0.00,VWS V14.01,2013-04-21 23:36:00,
2013-04-21 19:41:00,44.8,31.4,30.58,ESE,110,4.0,8.0,59,0.00,,---,0.00,VWS V14.01,2013-04-21 23:41:00,
2013-04-21 19:46:00,44.7,31.7,30.58,ESE,111,4.0,8.0,60,0.00,,---,0.00,VWS V14.01,2013-04-21 23:46:00,
2013-04-21 19:51:00,44.7,31.7,30.58,ENE,63,5.0,8.0,60,0.00,,---,0.00,VWS V14.01,2013-04-21 23:51:00,
2013-04-21 19:56:00,44.6,31.6,30.58,ESE,117,4.0,8.0,60,0.00,,---,0.00,VWS V14.01,2013-04-21 23:56:00,
2013-04-21 20:01:00,44.5,31.9,30.58,East,92,2.0,2.0,61,0.00,,---,0.00,VWS V14.01,2013-04-22 00:01:00,
2013-04-21 20:06:00,44.5,32.3,30.59,SSE,166,4.0,6.0,62,0.00,,---,0.00,VWS V14.01,2013-04-22 00:06:00,
2013-04-21 20:11:00,44.4,32.2,30.59,ESE,105,0.0,6.0,62,0.00,,---,0.00,VWS V14.01,2013-04-22 00:11:00,
2013-04-21 20:16:00,44.4,32.2,30.60,ESE,116,1.0,6.0,62,0.00,,---,0.00,VWS V14.01,2013-04-22 00:16:00,
2013-04-21 20:21:00,44.3,32.9,30.60,ENE,61,2.0,6.0,64,0.00,,---,0.00,VWS V14.01,2013-04-22 00:21:00,
2013-04-21 20:26:00,44.3,32.1,30.60,ESE,122,3.0,6.0,62,0.00,,---,0.00,VWS V14.01,2013-04-22 00:26:00,
2013-04-21 20:31:00,44.3,32.9,30.60,East,96,3.0,3.0,64,0.00,,---,0.00,VWS V14.01,2013-04-22 00:31:00,
2013-04-21 20:36:00,44.3,32.1,30.60,SW,214,4.0,5.0,62,0.00,,---,0.00,VWS V14.01,2013-04-22 00:36:00,
2013-04-21 20:41:00,44.2,31.6,30.60,ENE,74,2.0,6.0,61,0.00,,---,0.00,VWS V14.01,2013-04-22 00:41:00,
2013-04-21 20:46:00,44.2,32.0,30.60,East,96,2.0,6.0,62,0.00,,---,0.00,VWS V14.01,2013-04-22 00:46:00,
2013-04-21 20:52:00,44.1,32.3,30.60,SSE,159,0.0,6.0,63,0.00,,---,0.00,VWS V14.01,2013-04-22 00:52:00,
2013-04-21 20:56:00,44.1,32.3,30.61,ESE,105,1.0,6.0,63,0.00,,---,0.00,VWS V14.01,2013-04-22 00:56:00,
2013-04-21 21:01:00,44.1,31.9,30.61,ESE,116,3.0,4.0,62,0.00,,---,0.00,VWS V14.01,2013-04-22 01:01:00,
2013-04-21 21:07:00,44.1,32.3,30.61,East,94,1.0,6.0,63,0.00,,---,0.00,VWS V14.01,2013-04-22 01:07:00,
2013-04-21 21:12:00,44.2,32.4,30.61,SE,136,2.0,6.0,63,0.00,,---,0.00,VWS V14.01,2013-04-22 01:12:00,
2013-04-21 21:17:00,44.1,32.3,30.61,SE,139,3.0,6.0,63,0.00,,---,0.00,VWS V14.01,2013-04-22 01:17:00,
2013-04-21 21:22:00,44.1,31.9,30.61,East,87,0.0,6.0,62,0.00,,---,0.00,VWS V14.01,2013-04-22 01:22:00,
2013-04-21 21:27:00,44.2,32.4,30.61,ESE,106,3.0,6.0,63,0.00,,---,0.00,VWS V14.01,2013-04-22 01:27:00,
2013-04-21 21:32:00,44.1,32.3,30.61,East,97,0.0,0.0,63,0.00,,---,0.00,VWS V14.01,2013-04-22 01:32:00,
2013-04-21 21:37:00,44.1,32.3,30.60,East,101,0.0,1.0,63,0.00,,---,0.00,VWS V14.01,2013-04-22 01:37:00,
2013-04-21 21:42:00,44.1,33.5,30.60,East,101,1.0,3.0,66,0.00,,---,0.00,VWS V14.01,2013-04-22 01:42:00,
2013-04-21 21:47:00,44.2,32.4,30.60,ESE,113,0.0,3.0,63,0.00,,---,0.00,VWS V14.01,2013-04-22 01:47:00,
2013-04-21 21:52:00,44.1,32.3,30.60,SE,136,1.0,3.0,63,0.00,,---,0.00,VWS V14.01,2013-04-22 01:52:00,
2013-04-21 21:57:00,44.1,32.7,30.60,East,96,1.0,3.0,64,0.00,,---,0.00,VWS V14.01,2013-04-22 01:57:00,
2013-04-21 22:02:00,44.0,31.8,30.60,SE,127,1.0,1.0,62,0.00,,---,0.00,VWS V14.01,2013-04-22 02:02:00,
2013-04-21 22:07:00,44.0,32.2,30.60,East,88,1.0,2.0,63,0.00,,---,0.00,VWS V14.01,2013-04-22 02:07:00,
2013-04-21 22:12:00,44.2,32.0,30.60,ESE,102,0.0,2.0,62,0.00,,---,0.00,VWS V14.01,2013-04-22 02:12:00,
2013-04-21 22:17:00,44.2,32.0,30.60,East,100,1.0,2.0,62,0.00,,---,0.00,VWS V14.01,2013-04-22 02:17:00,
2013-04-21 22:22:00,44.2,32.4,30.60,East,96,0.0,3.0,63,0.00,,---,0.00,VWS V14.01,2013-04-22 02:22:00,
2013-04-21 22:27:00,44.3,32.9,30.60,East,83,2.0,4.0,64,0.00,,---,0.00,VWS V14.01,2013-04-22 02:27:00,
2013-04-21 22:32:00,44.4,32.2,30.60,East,86,1.0,2.0,62,0.00,,---,0.00,VWS V14.01,2013-04-22 02:32:00,
2013-04-21 22:37:00,44.4,32.6,30.61,ESE,113,0.0,2.0,63,0.00,,---,0.00,VWS V14.01,2013-04-22 02:37:00,
2013-04-21 22:42:00,44.3,32.5,30.61,ESE,121,1.0,5.0,63,0.00,,---,0.00,VWS V14.01,2013-04-22 02:42:00,
2013-04-21 22:47:00,44.3,32.9,30.61,ESE,121,1.0,5.0,64,0.00,,---,0.00,VWS V14.01,2013-04-22 02:47:00,
2013-04-21 22:52:00,44.3,32.5,30.60,ESE,103,2.0,5.0,63,0.00,,---,0.00,VWS V14.01,2013-04-22 02:52:00,
2013-04-21 22:57:00,44.4,32.2,30.60,East,82,4.0,5.0,62,0.00,,---,0.00,VWS V14.01,2013-04-22 02:57:00,
2013-04-21 23:02:00,44.4,33.0,30.60,East,85,0.0,0.0,64,0.00,,---,0.00,VWS V14.01,2013-04-22 03:02:00,
2013-04-21 23:07:00,44.3,32.5,30.60,East,100,0.0,3.0,63,0.00,,---,0.00,VWS V14.01,2013-04-22 03:07:00,
2013-04-21 23:12:00,44.5,32.7,30.60,ENE,74,1.0,4.0,63,0.00,,---,0.00,VWS V14.01,2013-04-22 03:12:00,
2013-04-21 23:17:00,44.6,32.8,30.60,ENE,58,4.0,4.0,63,0.00,,---,0.00,VWS V14.01,2013-04-22 03:17:00,
2013-04-21 23:22:00,44.9,33.1,30.60,ENE,74,2.0,6.0,63,0.00,,---,0.00,VWS V14.01,2013-04-22 03:22:00,
2013-04-21 23:27:00,44.9,32.7,30.60,ENE,65,2.0,6.0,62,0.00,,---,0.00,VWS V14.01,2013-04-22 03:27:00,
2013-04-21 23:32:00,44.9,32.7,30.61,SE,124,2.0,2.0,62,0.00,,---,0.00,VWS V14.01,2013-04-22 03:32:00,
2013-04-21 23:37:00,44.6,32.4,30.60,ESE,105,3.0,4.0,62,0.00,,---,0.00,VWS V14.01,2013-04-22 03:37:00,
2013-04-21 23:42:00,44.7,32.1,30.61,ESE,115,2.0,7.0,61,0.00,,---,0.00,VWS V14.01,2013-04-22 03:42:00,
2013-04-21 23:47:00,44.8,32.2,30.61,East,79,5.0,8.0,61,0.00,,---,0.00,VWS V14.01,2013-04-22 03:47:00,
2013-04-21 23:52:00,44.9,32.3,30.61,ENE,76,3.0,8.0,61,0.00,,---,0.00,VWS V14.01,2013-04-22 03:52:00,
2013-04-21 23:57:00,45.0,33.2,30.61,East,91,3.0,8.0,63,0.00,,---,0.00,VWS V14.01,2013-04-22 03:57:00,